NCAR-RAP Real-Time Weather Data

Output produced by METARs form (01 December 2020  18:42 UTC)
found at http://weather.rap.ucar.edu/surface/
 
KTOL 011652Z 30013KT 9SM -SN OVC024 01/M05 A2981 RMK AO2 SNB1556 SLP103 P0000 T00061050 $
KTOL 011552Z 30010KT 10SM OVC023 00/M05 A2982 RMK AO2 SLP106 T00001050 $
KTOL 011452Z 29008KT 10SM OVC024 00/M05 A2982 RMK AO2 SLP104 T00001050 53007 $
KTOL 011352Z 30011KT 10SM OVC023 M01/M05 A2981 RMK AO2 SLP102 T10061050 $
KTOL 011252Z 30008KT 10SM OVC022 M01/M05 A2980 RMK AO2 SLP098 T10061050 $
KTOL 011152Z 32010KT 9SM OVC023 M01/M05 A2980 RMK AO2 SNE52 SLP097 P0000 60007 70036 T10061050 10000 21011 53009 $
KTOL 011052Z 29006KT 3SM -SN OVC024 M01/M04 A2978 RMK AO2 SLP090 P0001 T10111039 $
KTOL 010952Z 30006KT 4SM -SN OVC027 M01/M04 A2977 RMK AO2 SLP087 P0001 T10111039 $
KTOL 010932Z AUTO 30010KT 3SM -SN OVC029 M01/M04 A2976 RMK AO2 P0001 T10111039 $
KTOL 010922Z AUTO 30010KT 3SM -SN FEW021 OVC031 M01/M04 A2977 RMK AO2 P0000 T10111039 $
KTOL 010914Z AUTO 30011KT 3SM -SN FEW009 FEW021 OVC029 M01/M04 A2977 RMK AO2 P0000 T10111039 $
KTOL 010906Z AUTO 29010KT 2SM -SN FEW021 OVC027 M01/M04 A2976 RMK AO2 P0000 T10111039 $
KTOL 010852Z AUTO 29008KT 4SM -SN FEW009 SCT022 OVC026 M01/M04 A2977 RMK AO2 SLP087 P0001 60005 T10111039 51001 $
KTOL 010848Z AUTO 29008KT 4SM -SN FEW009 SCT021 OVC026 M01/M04 A2977 RMK AO2 P0001 $
KTOL 010830Z AUTO 28007KT 2SM -SN BR FEW009 OVC028 M01/M03 A2977 RMK AO2 P0001 T10111033 $
KTOL 010819Z AUTO 30009KT 2SM -SN OVC034 M01/M04 A2977 RMK AO2 P0000 T10111039 $
KTOL 010752Z AUTO 30008KT 3SM -SN FEW007 FEW012 OVC030 M01/M04 A2977 RMK AO2 SLP087 P0003 T10111039 $
KTOL 010745Z AUTO 29009KT 3SM -SN BR FEW007 SCT012 OVC024 M01/M03 A2977 RMK AO2 P0003 T10111033 $
KTOL 010723Z AUTO 31010KT 1 1/2SM -SN FEW006 SCT012 OVC020 M01/M04 A2976 RMK AO2 P0002 T10111039 $
KTOL 010652Z AUTO 32009KT 1 3/4SM -SN OVC022 M01/M03 A2976 RMK AO2 SLP085 P0001 T10061033 $
KTOL 010631Z AUTO 32009KT 1 1/4SM -SN BKN020 BKN025 OVC048 M01/M04 A2976 RMK AO2 P0000 T10061039 $
KTOL 010623Z AUTO 33013KT 2 1/2SM -SN SCT024 BKN029 OVC048 M01/M04 A2976 RMK AO2 P0000 T10061044 $
KTOL 010552Z 32010KT 6SM -SN OVC024 00/M04 A2976 RMK AO2 SNB23 SLP084 P0000 60004 T00001044 10000 21006 58001 $
KTOL 010452Z 33014G20KT 10SM BKN024 OVC030 00/M04 A2977 RMK AO2 SNE19 SLP087 P0000 T00001044 400671006 $
KTOL 010352Z 31010KT 6SM -SN BKN028 OVC032 M01/M03 A2976 RMK AO2 SLP086 P0000 T10061033 $